Thousand Island Park, New York
Current Conditions -  °F | °C
As of 5:56 PM on Saturday 25 Oct 2014 (Local Time) from KART Reporting Station
Scattered Clouds Scattered Clouds  
Wind Chill: 14°   Ceiling: Unl
Heat Index: 14°   Visibility: 7mi
Dew Point: 10°   Wind: 7mph
Humidity: 77%   Direction: 250°WSW
Pressure: 29.53"   Gusts: NA
Location:  44.29°N, 76.03°W
Report Text: KART 252156Z AUTO 25006KT 7SM FEW024 FEW031 SCT038 14/10 A2953 RMK AO2 SLP999 T01390100
Loading
Personal Weather Stations






























Interactive Weather Map
Tropical Storm Tracking
New forecast layout! Learn more

10-Day Weather Forecast

Advertisements
Track Severe Weather on mobile